Flight Track Log - Related Links

Times and Time Zones

All times are in EDT time to prevent confusion due to time zone crossing. See the UPS2591 flight status page for this flight to view local times or setup timezone preferences in your user account.

Time Position Orientation Groundspeed Altitude Reporting Facility
EDT Latitude Longitude Course Direction KTS MPH feet Rate Location/Type
Tue 12:05:52 PM 41.2928 -95.8892 144° Southeast 178 205 1,600  Level Minneapolis Center
Tue 12:07:04 PM 41.2344 -95.8322 144° Southeast 252 290 4,600 2,873 Climbing Minneapolis Center
Tue 12:08:14 PM 41.1983 -95.7494 120° Southeast 248 285 8,400 3,227 Climbing Minneapolis Center
Tue 12:09:16 PM 41.1592 -95.6322 114° Southeast 276 318 11,700 2,468 Climbing Minneapolis Center
Tue 12:10:18 PM 41.1069 -95.5147 121° Southeast 337 388 13,500 2,323 Climbing Minneapolis Center
Tue 12:11:20 PM 41.0539 -95.3844 118° Southeast 390 449 16,500 2,516 Climbing Minneapolis Center
Tue 12:12:22 PM 40.9767 -95.2694 132° Southeast 410 472 18,700 1,984 Climbing Minneapolis Center
Tue 12:13:24 PM 40.9094 -95.1744 133° Southeast 431 496 20,600 2,034 Climbing Minneapolis Center
Tue 12:19:12 PM 40.4310 -94.3210 133° Southeast 478 550 32,600 1,918 Climbing FlightAware ADS-B
Tue 12:19:52 PM 40.3910 -94.2150 116° Southeast 484 557 33,000 282 Climbing FlightAware ADS-B
Tue 12:20:37 PM 40.3450 -94.0970 117° Southeast 483 556 33,000  Level FlightAware ADS-B
Tue 12:21:27 PM 40.2990 -93.9730 116° Southeast 482 555 33,000  Level FlightAware ADS-B
Tue 12:22:12 PM 40.2500 -93.8520 118° Southeast 482 555 33,000  Level FlightAware ADS-B
Tue 12:22:57 PM 40.2040 -93.7330 117° Southeast 480 552 33,000  Level FlightAware ADS-B
Tue 12:23:37 PM 40.1640 -93.6300 117° Southeast 478 550 33,000  Level FlightAware ADS-B
Tue 12:24:22 PM 40.1190 -93.5150 117° Southeast 475 547 33,000  Level FlightAware ADS-B
Tue 12:25:02 PM 40.0770 -93.4100 118° Southeast 481 554 33,000  Level FlightAware ADS-B
Tue 12:25:42 PM 40.0370 -93.3080 117° Southeast 485 558 33,000  Level FlightAware ADS-B
Tue 12:26:27 PM 39.9910 -93.1920 117° Southeast 481 554 33,000  Level FlightAware ADS-B
Tue 12:27:07 PM 39.9500 -93.0920 118° Southeast 478 550 33,000  Level FlightAware ADS-B
Tue 12:27:52 PM 39.9040 -92.9740 117° Southeast 475 547 33,000  Level FlightAware ADS-B
Tue 12:28:32 PM 39.8640 -92.8760 118° Southeast 475 547 33,000  Level FlightAware ADS-B
Tue 12:29:22 PM 39.8150 -92.7520 117° Southeast 474 545 33,000  Level FlightAware ADS-B
Tue 12:30:12 PM 39.7730 -92.6440 117° Southeast 474 545 33,000  Level FlightAware ADS-B
Tue 12:30:52 PM 39.7390 -92.5570 117° Southeast 474 545 33,000  Level FlightAware ADS-B
Tue 12:31:32 PM 39.7050 -92.4710 117° Southeast 474 545 33,000  Level FlightAware ADS-B
Tue 12:32:12 PM 39.6710 -92.3850 117° Southeast 474 545 33,000  Level FlightAware ADS-B
Tue 12:32:57 PM 39.5920 -92.2090 120° Southeast 479 551 33,000  Level FlightAware ADS-B
Tue 12:33:42 PM 39.5490 -92.1030 118° Southeast 479 551 33,000  Level FlightAware ADS-B
Tue 12:34:22 PM 39.5020 -91.9890 118° Southeast 478 550 33,000  Level FlightAware ADS-B
Tue 12:35:02 PM 39.4570 -91.8830 119° Southeast 476 548 33,000  Level FlightAware ADS-B
Tue 12:35:47 PM 39.4120 -91.7730 118° Southeast 476 548 33,000  Level FlightAware ADS-B
Tue 12:36:27 PM 39.3690 -91.6720 119° Southeast 477 549 33,000  Level FlightAware ADS-B
Tue 12:37:07 PM 39.3320 -91.5820 118° Southeast 478 550 33,000  Level FlightAware ADS-B
Tue 12:38:07 PM 39.2640 -91.4220 119° Southeast 476 548 33,000  Level FlightAware ADS-B
Tue 12:38:52 PM 39.2160 -91.3100 119° Southeast 473 544 33,000  Level FlightAware ADS-B
Tue 12:39:37 PM 39.1700 -91.2010 119° Southeast 474 545 33,000  Level FlightAware ADS-B
Tue 12:40:22 PM 39.1290 -91.1010 118° Southeast 474 545 33,000  Level FlightAware ADS-B
Tue 12:41:17 PM 39.0680 -90.9580 119° Southeast 475 547 33,000  Level FlightAware ADS-B
Tue 12:41:57 PM 39.0200 -90.8510 120° Southeast 477 549 33,000  Level FlightAware ADS-B
Tue 12:42:37 PM 38.9780 -90.7520 119° Southeast 477 549 33,000  Level FlightAware ADS-B
Tue 12:43:22 PM 38.9360 -90.6530 119° Southeast 477 549 33,000  Level FlightAware ADS-B
Tue 12:44:07 PM 38.8820 -90.5310 120° Southeast 471 542 33,000  Level FlightAware ADS-B
Tue 12:44:52 PM 38.8390 -90.4320 119° Southeast 471 542 33,000  Level FlightAware ADS-B
Tue 12:45:47 PM 38.7950 -90.2830 111° Southeast 467 537 33,000  Level FlightAware ADS-B
Tue 12:46:27 PM 38.7590 -90.1740 113° Southeast 465 535 33,000  Level FlightAware ADS-B
Tue 12:47:12 PM 38.7240 -90.0680 113° Southeast 462 532 33,000  Level FlightAware ADS-B
Tue 12:47:52 PM 38.6900 -89.9640 113° Southeast 463 533 33,000  Level FlightAware ADS-B
Tue 12:48:32 PM 38.6560 -89.8610 113° Southeast 465 535 33,000  Level FlightAware ADS-B
Tue 12:49:27 PM 38.6100 -89.7250 113° Southeast 463 533 33,000  Level FlightAware ADS-B
Tue 12:50:22 PM 38.5660 -89.5920 113° Southeast 462 532 33,000  Level FlightAware ADS-B
Tue 12:51:07 PM 38.5240 -89.4660 113° Southeast 461 531 33,000  Level FlightAware ADS-B
Tue 12:52:02 PM 38.4810 -89.3380 113° Southeast 461 531 33,000  Level FlightAware ADS-B
Tue 12:52:47 PM 38.4430 -89.2240 113° Southeast 461 531 33,000  Level FlightAware ADS-B
Tue 12:53:42 PM 38.4150 -89.0720 103° East 464 534 33,000  Level FlightAware ADS-B
Tue 12:54:22 PM 38.4100 -88.9720 94° East 459 528 33,000  Level FlightAware ADS-B
Tue 12:55:07 PM 38.4050 -88.8420 93° East 458 527 33,000 -400 Level FlightAware ADS-B
Tue 12:55:52 PM 38.4000 -88.7230 93° East 463 533 32,400 -988 Descending FlightAware ADS-B
Tue 12:56:32 PM 38.3950 -88.6140 93° East 461 531 31,600 -1,412 Descending FlightAware ADS-B
Tue 12:57:17 PM 38.3900 -88.4890 93° East 464 534 30,400 -1,500 Descending FlightAware ADS-B
Tue 12:57:52 PM 38.3850 -88.3970 94° East 453 521 29,600 -1,050 Descending FlightAware ADS-B
Tue 12:58:37 PM 38.3790 -88.2760 94° East 420 483 29,000 -733 Descending FlightAware ADS-B
Tue 12:59:22 PM 38.3740 -88.1730 94° East 397 457 28,500 -847 Descending FlightAware ADS-B
Tue 01:00:02 PM 38.3700 -88.0800 93° East 383 441 27,800 -1,341 Descending FlightAware ADS-B
Tue 01:00:47 PM 38.3650 -87.9790 94° East 366 421 26,600 -1,624 Descending FlightAware ADS-B
Tue 01:01:27 PM 38.3600 -87.8950 94° East 361 415 25,500 -1,575 Descending FlightAware ADS-B
Tue 01:02:07 PM 38.3560 -87.8110 93° East 358 412 24,500 -1,412 Descending FlightAware ADS-B
Tue 01:02:52 PM 38.3510 -87.7170 94° East 353 406 23,500 -1,280 Descending FlightAware ADS-B
Tue 01:03:22 PM 38.3480 -87.6550 94° East 349 402 22,900 -1,425 Descending FlightAware ADS-B
Tue 01:04:12 PM 38.3420 -87.5530 94° East 342 394 21,600 -1,389 Descending FlightAware ADS-B
Tue 01:04:57 PM 38.3370 -87.4640 94° East 335 386 20,700 -1,267 Descending FlightAware ADS-B
Tue 01:05:42 PM 38.3320 -87.3740 94° East 329 379 19,700 -1,341 Descending FlightAware ADS-B
Tue 01:06:22 PM 38.3280 -87.2990 94° East 325 374 18,800 -1,275 Descending FlightAware ADS-B
Tue 01:07:02 PM 38.3200 -87.2240 98° East 323 372 18,000 -1,200 Descending FlightAware ADS-B
Tue 01:07:47 PM 38.3090 -87.1400 99° East 314 361 17,100 -1,200 Descending FlightAware ADS-B
Tue 01:08:27 PM 38.3000 -87.0700 99° East 310 357 16,300 -1,200 Descending FlightAware ADS-B
Tue 01:09:07 PM 38.2910 -87.0010 99° East 308 354 15,500 -1,120 Descending FlightAware ADS-B
Tue 01:09:42 PM 38.2830 -86.9350 99° East 306 352 14,900 -1,125 Descending FlightAware ADS-B
Tue 01:10:27 PM 38.2730 -86.8530 99° East 304 350 14,000 -1,137 Descending FlightAware ADS-B
Tue 01:11:17 PM 38.2620 -86.7650 99° East 302 348 13,100 -600 Descending FlightAware ADS-B
Tue 01:11:57 PM 38.2540 -86.7050 100° East 302 348 13,100  Level FlightAware ADS-B
Tue 01:12:37 PM 38.2470 -86.6460 99° East 302 348 13,100 -1,835 Level FlightAware ADS-B
Tue 01:13:22 PM 38.2350 -86.5540 99° East 286 329 10,500 -2,560 Descending FlightAware ADS-B
Tue 01:13:52 PM 38.2290 -86.5030 99° East 285 328 9,900 -1,067 Descending FlightAware ADS-B
Tue 01:14:07 PM 38.2260 -86.4810 100° East 285 328 9,700 -1,050 Descending FlightAware ADS-B
Tue 01:14:32 PM 38.2270 -86.4390 88° East 277 319 9,200 -1,029 Descending FlightAware ADS-B
Tue 01:14:42 PM 38.2290 -86.4240 80° East 275 316 9,100 -300 Descending FlightAware ADS-B
Tue 01:15:12 PM 38.2360 -86.3770 79° East 251 289 9,000 -171 Descending FlightAware ADS-B
Tue 01:15:52 PM 38.2450 -86.3240 78° East 239 275 8,900 -857 Descending FlightAware ADS-B
Tue 01:16:22 PM 38.2510 -86.2810 80° East 226 260 8,000 -1,300 Descending FlightAware ADS-B
Tue 01:16:52 PM 38.2570 -86.2430 79° East 226 260 7,600 -462 Descending FlightAware ADS-B
Tue 01:17:27 PM 38.2640 -86.2010 78° East 225 259 7,500 -686 Descending FlightAware ADS-B
Tue 01:18:02 PM 38.2610 -86.1560 95° East 230 265 6,800 -1,015 Descending FlightAware ADS-B
Tue 01:18:32 PM 38.2430 -86.1180 121° Southeast 234 269 6,400 -720 Descending FlightAware ADS-B
Tue 01:18:52 PM 38.2320 -86.0930 119° Southeast 233 268 6,200 -436 Descending FlightAware ADS-B
Tue 01:19:27 PM 38.2140 -86.0510 119° Southeast 223 257 6,000 -240 Descending FlightAware ADS-B
Tue 01:19:42 PM 38.2070 -86.0350 119° Southeast 217 250 6,000  Level FlightAware ADS-B
Tue 01:20:07 PM 38.1950 -86.0080 119° Southeast 207 238 6,000  Level FlightAware ADS-B
Tue 01:20:37 PM 38.1810 -85.9740 118° Southeast 205 236 6,000  Level FlightAware ADS-B
Tue 01:20:47 PM 38.1760 -85.9630 120° Southeast 205 236 6,000  Level FlightAware ADS-B
Tue 01:21:17 PM 38.1630 -85.9330 119° Southeast 206 237 6,000  Level FlightAware ADS-B
Tue 01:21:47 PM 38.1490 -85.9000 118° Southeast 209 241 6,000  Level FlightAware ADS-B
Tue 01:22:12 PM 38.1350 -85.8750 125° Southeast 210 242 6,000  Level FlightAware ADS-B
Tue 01:22:27 PM 38.1210 -85.8670 156° South 210 242 6,000 -400 Level FlightAware ADS-B
Tue 01:22:57 PM 38.0950 -85.8540 159° South 213 245 5,700 -873 Descending FlightAware ADS-B
Tue 01:23:22 PM 38.0730 -85.8420 157° South 211 243 5,200 -1,200 Descending FlightAware ADS-B
Tue 01:23:52 PM 38.0470 -85.8250 153° Southeast 213 245 4,600 -1,200 Descending FlightAware ADS-B
Tue 01:24:17 PM 38.0230 -85.8090 152° Southeast 214 246 4,100 -655 Descending FlightAware ADS-B
Tue 01:24:47 PM 37.9970 -85.7910 151° Southeast 205 236 4,000 -100 Descending FlightAware ADS-B
Tue 01:25:17 PM 37.9740 -85.7720 147° Southeast 207 238 4,000 -545 Level FlightAware ADS-B
Tue 01:25:42 PM 37.9550 -85.7570 148° Southeast 209 241 3,500 -1,200 Descending FlightAware ADS-B
Tue 01:25:57 PM 37.9470 -85.7400 121° Southeast 201 231 3,200 -667 Descending FlightAware ADS-B
Tue 01:26:27 PM 37.9510 -85.7070 81° East 179 206 3,000 -300 Descending FlightAware ADS-B
Tue 01:26:37 PM 37.9570 -85.6990 46° Northeast 174 200 3,000  Level FlightAware ADS-B
Tue 01:26:52 PM 37.9660 -85.6950 19° North 170 196 3,000  Level FlightAware ADS-B
Tue 01:27:22 PM 37.9900 -85.6870 15° North 164 189 3,000  Level FlightAware ADS-B
Tue 01:27:37 PM 38.0020 -85.6880 356° North 165 190 3,000  Level FlightAware ADS-B
Tue 01:28:02 PM 38.0200 -85.6940 345° North 165 190 3,000 -327 Level FlightAware ADS-B
Tue 01:28:32 PM 38.0430 -85.7010 347° North 162 186 2,700 -700 Descending FlightAware ADS-B
Tue 01:29:02 PM 38.0640 -85.7080 345° North 158 182 2,300 -873 Descending FlightAware ADS-B
Tue 01:29:27 PM 38.0820 -85.7140 345° North 148 170 1,900 -764 Descending FlightAware ADS-B
Tue 01:29:57 PM 38.1010 -85.7200 346° North 132 152 1,600 -655 Descending FlightAware ADS-B
Tue 01:30:22 PM 38.1140 -85.7250 343° North 129 148 1,300 -655 Descending FlightAware ADS-B
Tue 01:30:52 PM 38.1330 -85.7310 346° North 136 157 1,000 -667 Descending FlightAware ADS-B
Tue 01:31:07 PM 38.1430 -85.7340 347° North 132 152 800 -857 Descending FlightAware ADS-B
Tue 01:31:27 PM 38.1550 -85.7380 345° North 134 154 500 -900 Descending FlightAware ADS-B

Login

Don't have an account? Register now (free) for customized features, flight alerts, and more!